Time;durP1;ratioP1;P1;durP2;ratioP2;P2;SDS_P1;SDS_P2;PMS_P1;PMS_P2;Temp;Humidity;BMP_temperature;BMP_pressure;BME280_temperature;BME280_humidity;BME280_pressure;Samples;Min_cycle;Max_cycle;Signal;HPM_P1;HPM_P2
2021/11/30 00:00:57;;;;;;;19.20;12.90;;;3.10;91.20;;;;;;5073024;28;20186;-84
2021/11/30 00:03:23;;;;;;;15.07;11.27;;;3.20;91.30;;;;;;5073358;28;20200;-85
2021/11/30 00:05:49;;;;;;;14.60;11.00;;;3.20;91.30;;;;;;5074265;28;20179;-84
2021/11/30 00:08:16;;;;;;;19.87;12.73;;;3.10;91.40;;;;;;5072498;28;20167;-84
2021/11/30 00:10:43;;;;;;;16.47;11.43;;;3.20;91.10;;;;;;5072387;28;20173;-85
2021/11/30 00:13:10;;;;;;;11.10;7.47;;;3.20;90.80;;;;;;5073496;28;20213;-84
2021/11/30 00:15:36;;;;;;;17.27;12.40;;;3.20;90.70;;;;;;5073451;28;20528;-84
2021/11/30 00:18:02;;;;;;;14.97;10.77;;;3.20;90.40;;;;;;5072143;28;20180;-85
2021/11/30 00:20:28;;;;;;;20.13;15.20;;;3.20;90.50;;;;;;5072000;28;20589;-85
2021/11/30 00:22:54;;;;;;;15.73;10.13;;;3.20;90.60;;;;;;5071937;28;20348;-85
2021/11/30 00:25:19;;;;;;;14.10;9.97;;;3.20;90.60;;;;;;5072308;28;20182;-85
2021/11/30 00:27:45;;;;;;;13.83;10.87;;;3.20;90.40;;;;;;5073790;28;20167;-84
2021/11/30 00:30:11;;;;;;;15.53;11.43;;;3.30;90.10;;;;;;5071884;28;20182;-84
2021/11/30 00:32:37;;;;;;;18.50;11.67;;;3.30;90.20;;;;;;5073535;28;20203;-85
2021/11/30 00:35:03;;;;;;;15.70;9.83;;;3.30;90.40;;;;;;5072087;28;20175;-85
2021/11/30 00:37:29;;;;;;;17.73;11.60;;;3.30;90.60;;;;;;5073129;28;20240;-84
2021/11/30 00:39:55;;;;;;;13.67;9.50;;;3.20;90.80;;;;;;5073464;28;20704;-85
2021/11/30 00:42:23;;;;;;;18.67;7.37;;;3.30;90.90;;;;;;5071891;28;20210;-85
2021/11/30 00:44:51;;;;;;;21.83;13.13;;;3.30;91.00;;;;;;5073146;28;20163;-84
2021/11/30 00:47:19;;;;;;;11.83;8.73;;;3.30;91.10;;;;;;5071706;28;20194;-84
2021/11/30 00:49:47;;;;;;;17.37;11.63;;;3.30;91.30;;;;;;5071694;28;20221;-84
2021/11/30 00:52:14;;;;;;;10.87;8.47;;;3.40;91.20;;;;;;5071523;28;20198;-85
2021/11/30 00:54:41;;;;;;;16.23;11.37;;;3.40;91.40;;;;;;5071553;28;20607;-85
2021/11/30 00:57:07;;;;;;;12.67;8.80;;;3.40;91.60;;;;;;5071476;28;20268;-85
2021/11/30 00:59:32;;;;;;;16.03;10.30;;;3.40;91.90;;;;;;5072817;28;20254;-85
2021/11/30 01:01:59;;;;;;;17.97;12.90;;;3.40;91.90;;;;;;5071348;28;20226;-85
2021/11/30 01:04:25;;;;;;;16.53;10.73;;;3.40;92.00;;;;;;5072699;28;20167;-86
2021/11/30 01:06:50;;;;;;;15.60;11.47;;;3.50;92.00;;;;;;5072388;28;20300;-85
2021/11/30 01:09:16;;;;;;;16.83;11.40;;;3.50;91.90;;;;;;5076446;28;20345;-85
2021/11/30 01:11:42;;;;;;;18.70;13.23;;;3.40;92.10;;;;;;5074770;28;20257;-85
2021/11/30 01:14:08;;;;;;;19.37;12.37;;;3.50;92.20;;;;;;5075154;28;20178;-85
2021/11/30 01:16:35;;;;;;;20.60;12.67;;;3.50;92.20;;;;;;5074980;28;20175;-84
2021/11/30 01:19:03;;;;;;;17.43;12.00;;;3.50;92.10;;;;;;5074914;28;20187;-85
2021/11/30 01:21:29;;;;;;;15.90;11.30;;;3.50;92.10;;;;;;5074804;28;20199;-84
2021/11/30 01:23:55;;;;;;;17.70;12.30;;;3.50;92.10;;;;;;5076226;28;20171;-84
2021/11/30 01:26:21;;;;;;;20.70;12.80;;;3.50;92.10;;;;;;5074856;28;20175;-84
2021/11/30 01:28:46;;;;;;;20.63;13.30;;;3.50;92.00;;;;;;5074825;28;20180;-85
2021/11/30 01:31:12;;;;;;;12.77;8.47;;;3.60;91.90;;;;;;5074852;28;20292;-84
2021/11/30 01:33:37;;;;;;;20.77;12.17;;;3.50;91.80;;;;;;5074645;28;20191;-85
2021/11/30 01:36:04;;;;;;;14.80;9.27;;;3.50;91.60;;;;;;5074653;28;20172;-84
2021/11/30 01:38:30;;;;;;;9.20;7.30;;;3.50;91.90;;;;;;5074642;28;20186;-85
2021/11/30 01:40:59;;;;;;;8.93;6.17;;;3.50;91.90;;;;;;5074608;28;20217;-85
2021/11/30 01:43:26;;;;;;;11.93;7.30;;;3.40;92.00;;;;;;5075755;28;20695;-85
2021/11/30 01:51:22;;;;;;;9.47;7.60;;;3.30;92.20;;;;;;5075763;28;20163;-85
2021/11/30 01:53:48;;;;;;;9.50;7.27;;;3.30;92.20;;;;;;5075776;28;20178;-85
2021/11/30 01:56:14;;;;;;;16.50;10.10;;;3.30;92.40;;;;;;5075561;28;20221;-85
2021/11/30 01:58:40;;;;;;;8.47;5.90;;;3.30;92.50;;;;;;5075613;28;20647;-85
2021/11/30 02:01:06;;;;;;;11.40;7.33;;;3.30;92.70;;;;;;5074112;28;20178;-85
2021/11/30 02:03:34;;;;;;;8.53;6.43;;;3.40;92.50;;;;;;5075268;28;20194;-85
2021/11/30 02:06:00;;;;;;;13.23;8.23;;;3.40;92.60;;;;;;5075461;28;20194;-85
2021/11/30 02:08:25;;;;;;;6.13;4.60;;;3.30;92.60;;;;;;5075518;28;20169;-85
2021/11/30 02:10:54;;;;;;;13.70;8.33;;;3.30;92.40;;;;;;5075763;28;20600;-85
2021/11/30 02:13:20;;;;;;;10.47;7.07;;;3.30;92.50;;;;;;5074155;28;20225;-85
2021/11/30 02:15:49;;;;;;;11.50;6.70;;;3.30;92.50;;;;;;5075319;28;20183;-85
2021/11/30 02:18:21;;;;;;;7.57;5.57;;;3.30;92.30;;;;;;5073673;28;20258;-85
2021/11/30 02:20:48;;;;;;;5.73;5.00;;;3.30;92.30;;;;;;5075336;28;20156;-85
2021/11/30 02:23:31;;;;;;;8.30;5.07;;;3.30;92.40;;;;;;5074939;28;20273;-85
2021/11/30 02:25:58;;;;;;;8.60;5.07;;;3.40;92.30;;;;;;5073961;28;20619;-85
2021/11/30 02:28:24;;;;;;;9.33;5.90;;;3.40;92.10;;;;;;5075142;28;20250;-85
2021/11/30 02:30:49;;;;;;;6.90;5.17;;;3.50;92.00;;;;;;5075083;28;20207;-84
2021/11/30 02:33:15;;;;;;;9.37;7.03;;;3.70;91.40;;;;;;5074926;28;20190;-85
2021/11/30 02:35:41;;;;;;;7.80;6.30;;;3.70;91.40;;;;;;5073811;28;20174;-85
2021/11/30 02:38:09;;;;;;;8.13;5.47;;;3.70;91.40;;;;;;5073578;28;20178;-85
2021/11/30 02:40:36;;;;;;;6.67;4.80;;;3.80;91.50;;;;;;5073388;28;20183;-85
2021/11/30 02:43:03;;;;;;;6.00;4.20;;;3.80;91.20;;;;;;5074770;28;20203;-85
2021/11/30 02:45:30;;;;;;;5.50;3.60;;;3.70;91.30;;;;;;5073548;28;20174;-85
2021/11/30 02:47:56;;;;;;;11.17;5.73;;;3.70;91.40;;;;;;5074927;28;20171;-85
2021/11/30 02:50:22;;;;;;;8.97;4.33;;;3.70;91.20;;;;;;5074624;28;20170;-85
2021/11/30 02:52:47;;;;;;;7.60;4.60;;;3.70;90.70;;;;;;5073172;28;20278;-85
2021/11/30 02:55:13;;;;;;;5.00;3.27;;;3.80;90.80;;;;;;5074655;28;20183;-85
2021/11/30 02:57:39;;;;;;;8.37;4.77;;;3.70;90.90;;;;;;5073325;28;20171;-85
2021/11/30 03:00:06;;;;;;;4.03;3.40;;;3.70;91.10;;;;;;5073102;28;20179;-85
2021/11/30 03:02:33;;;;;;;5.97;3.60;;;3.70;91.00;;;;;;5074189;28;20290;-85
2021/11/30 03:05:00;;;;;;;5.47;3.07;;;3.70;90.80;;;;;;5073219;28;20175;-85
2021/11/30 03:07:29;;;;;;;5.63;3.47;;;3.60;91.40;;;;;;5074454;28;20166;-85
2021/11/30 03:09:55;;;;;;;7.70;4.77;;;3.60;91.50;;;;;;5074222;28;20190;-85
2021/11/30 03:12:22;;;;;;;5.00;3.87;;;3.60;92.00;;;;;;5074326;28;20258;-85
2021/11/30 03:14:48;;;;;;;6.43;2.70;;;3.60;92.10;;;;;;5072996;28;20199;-85
2021/11/30 03:17:15;;;;;;;9.10;5.03;;;3.50;92.20;;;;;;5072862;28;20550;-85
2021/11/30 03:19:41;;;;;;;6.57;3.90;;;3.50;92.70;;;;;;5074071;28;20261;-85
2021/11/30 03:22:07;;;;;;;6.30;3.53;;;3.50;92.60;;;;;;5072653;28;20298;-86
2021/11/30 03:24:34;;;;;;;8.43;4.10;;;3.50;92.60;;;;;;5072819;28;20220;-85
2021/11/30 03:27:00;;;;;;;8.93;5.00;;;3.50;92.70;;;;;;5072759;28;20695;-85
2021/11/30 03:29:26;;;;;;;9.37;4.83;;;3.50;92.90;;;;;;5072077;28;20171;-85
2021/11/30 03:32:02;;;;;;;4.43;4.03;;;3.50;93.10;;;;;;5074428;28;20202;-84
2021/11/30 03:34:28;;;;;;;4.47;3.80;;;3.50;93.00;;;;;;5072696;28;20163;-85
2021/11/30 03:36:56;;;;;;;5.03;3.63;;;3.40;93.30;;;;;;5072705;28;20597;-84
2021/11/30 03:39:24;;;;;;;5.23;3.43;;;3.50;93.30;;;;;;5074137;28;20635;-85
2021/11/30 03:41:52;;;;;;;9.73;5.67;;;3.40;93.40;;;;;;5073788;28;20694;-84
2021/11/30 03:44:19;;;;;;;5.97;4.93;;;3.40;93.50;;;;;;5073803;28;20174;-85
2021/11/30 03:46:44;;;;;;;7.10;5.10;;;3.40;93.50;;;;;;5072915;28;20666;-86
2021/11/30 03:49:12;;;;;;;3.50;3.20;;;3.50;93.50;;;;;;5072383;28;20179;-85
2021/11/30 03:51:38;;;;;;;5.10;4.60;;;3.40;93.70;;;;;;5073636;28;20203;-85
2021/11/30 03:54:05;;;;;;;5.27;4.77;;;3.40;93.80;;;;;;5073677;28;20255;-85
2021/11/30 03:56:31;;;;;;;5.80;5.20;;;3.40;93.80;;;;;;5072272;28;20594;-86
2021/11/30 03:58:56;;;;;;;5.97;4.13;;;3.40;93.90;;;;;;5073137;28;20229;-85
2021/11/30 04:01:22;;;;;;;5.73;3.83;;;3.40;93.90;;;;;;5072261;28;20285;-85
2021/11/30 04:03:48;;;;;;;5.33;4.63;;;3.40;93.80;;;;;;5073551;28;20167;-85
2021/11/30 04:06:14;;;;;;;5.47;3.93;;;3.50;93.90;;;;;;5072190;28;20174;-85
2021/11/30 04:08:39;;;;;;;5.80;5.23;;;3.50;93.90;;;;;;5072878;28;20178;-86
2021/11/30 04:11:10;;;;;;;5.77;4.00;;;3.50;93.90;;;;;;5072382;28;20171;-86
2021/11/30 04:13:36;;;;;;;7.40;5.77;;;3.50;93.90;;;;;;5073856;28;20207;-86
2021/11/30 04:16:02;;;;;;;4.40;4.00;;;3.50;94.00;;;;;;5072339;28;20681;-86
2021/11/30 04:18:28;;;;;;;7.73;6.07;;;3.60;94.00;;;;;;5072625;28;20178;-86
2021/11/30 04:20:54;;;;;;;5.40;4.90;;;3.50;94.00;;;;;;5072480;28;20172;-86
2021/11/30 04:23:19;;;;;;;8.17;6.90;;;3.60;94.00;;;;;;5072327;28;20604;-86
2021/11/30 04:25:45;;;;;;;6.10;4.57;;;3.70;93.90;;;;;;5074170;28;20545;-86
2021/11/30 04:28:11;;;;;;;6.63;6.03;;;3.70;93.90;;;;;;5072620;28;20170;-85
2021/11/30 04:30:36;;;;;;;4.23;3.80;;;3.70;93.90;;;;;;5072580;28;20182;-86
2021/11/30 04:33:03;;;;;;;5.43;4.37;;;3.70;93.90;;;;;;5072706;28;20291;-86
2021/11/30 04:35:29;;;;;;;5.30;4.57;;;3.80;93.80;;;;;;5073877;28;20208;-86
2021/11/30 04:37:55;;;;;;;7.10;5.83;;;3.80;93.90;;;;;;5073049;28;20175;-86
2021/11/30 04:40:21;;;;;;;8.73;7.87;;;3.80;94.00;;;;;;5074008;28;20607;-87
2021/11/30 04:42:47;;;;;;;4.40;4.00;;;3.80;94.10;;;;;;5076395;28;20215;-86
2021/11/30 04:45:25;;;;;;;8.33;5.47;;;3.90;94.10;;;;;;5077950;28;20163;-86
2021/11/30 04:47:54;;;;;;;9.80;4.80;;;3.90;94.10;;;;;;5076843;28;20251;-87
2021/11/30 04:50:25;;;;;;;7.73;6.87;;;3.90;94.10;;;;;;5076289;28;20175;-86
2021/11/30 04:52:54;;;;;;;8.70;7.87;;;4.00;94.10;;;;;;5077526;28;20197;-86
2021/11/30 04:55:30;;;;;;;8.23;6.70;;;4.00;94.10;;;;;;5075677;28;20671;-87
2021/11/30 04:57:59;;;;;;;11.23;8.93;;;4.00;94.10;;;;;;5075968;28;20263;-86
2021/11/30 05:00:27;;;;;;;7.23;6.53;;;4.00;94.30;;;;;;5076215;28;20179;-86
2021/11/30 05:02:53;;;;;;;8.27;7.47;;;4.00;94.40;;;;;;5075933;28;20231;-86
2021/11/30 05:05:19;;;;;;;9.47;7.77;;;4.10;94.30;;;;;;5077304;28;20168;-87
2021/11/30 05:07:45;;;;;;;10.07;8.87;;;4.20;94.30;;;;;;5077387;28;20167;-86
2021/11/30 05:10:13;;;;;;;7.87;7.07;;;4.20;94.20;;;;;;5077141;28;20167;-86
2021/11/30 05:12:40;;;;;;;9.17;8.27;;;4.20;94.30;;;;;;5076812;28;20685;-86
2021/11/30 05:15:06;;;;;;;8.60;7.80;;;4.30;94.40;;;;;;5075550;28;20171;-86
2021/11/30 05:17:32;;;;;;;7.13;6.37;;;4.30;94.20;;;;;;5075267;28;20551;-85
2021/11/30 05:19:58;;;;;;;7.40;6.67;;;4.40;94.10;;;;;;5076665;28;20169;-86
2021/11/30 05:22:23;;;;;;;7.83;6.20;;;4.30;94.10;;;;;;5076730;28;20214;-86
2021/11/30 05:24:49;;;;;;;6.77;6.13;;;4.30;94.20;;;;;;5075451;28;20293;-87
2021/11/30 05:27:16;;;;;;;7.30;6.43;;;4.40;94.30;;;;;;5075195;28;20172;-86
2021/11/30 05:29:42;;;;;;;10.30;8.20;;;4.40;94.30;;;;;;5076936;28;20216;-85
2021/11/30 05:32:07;;;;;;;8.10;7.30;;;4.40;94.30;;;;;;5075288;28;20601;-86
2021/11/30 05:34:33;;;;;;;9.90;9.00;;;4.40;94.40;;;;;;5075481;28;20182;-86
2021/11/30 05:36:59;;;;;;;6.90;6.30;;;4.40;94.40;;;;;;5075256;28;20171;-86
2021/11/30 05:39:24;;;;;;;8.47;7.67;;;4.50;94.50;;;;;;5076905;28;20172;-86
2021/11/30 05:41:50;;;;;;;11.77;9.17;;;4.60;94.60;;;;;;5076569;28;20576;-86
2021/11/30 05:44:16;;;;;;;11.67;9.37;;;4.60;94.50;;;;;;5077373;28;20541;-86
2021/11/30 05:46:46;;;;;;;11.63;9.33;;;4.70;94.50;;;;;;5075743;28;20175;-85
2021/11/30 05:49:12;;;;;;;18.17;6.63;;;4.70;94.50;;;;;;5075635;28;20176;-86
2021/11/30 05:51:37;;;;;;;17.30;8.47;;;4.80;94.70;;;;;;5075298;28;20291;-86
2021/11/30 05:54:04;;;;;;;10.80;6.97;;;4.80;94.70;;;;;;5076096;28;20205;-86
2021/11/30 05:56:29;;;;;;;4.60;4.20;;;4.80;94.70;;;;;;5075002;28;20182;-86
2021/11/30 05:58:56;;;;;;;7.20;6.50;;;4.90;94.80;;;;;;5075320;28;20171;-86
2021/11/30 06:01:31;;;;;;;10.10;9.10;;;4.90;94.80;;;;;;5075021;28;20177;-86
2021/11/30 06:03:58;;;;;;;7.17;5.27;;;4.90;94.90;;;;;;5075051;28;20156;-86
2021/11/30 06:06:26;;;;;;;9.53;6.73;;;4.90;95.00;;;;;;5074841;28;20174;-86
2021/11/30 06:08:52;;;;;;;8.70;7.07;;;5.00;95.10;;;;;;5076107;28;20170;-87
2021/11/30 06:11:18;;;;;;;10.07;9.07;;;5.00;95.10;;;;;;5075003;28;20591;-86
2021/11/30 06:13:44;;;;;;;5.57;4.83;;;5.00;95.20;;;;;;5074437;28;20281;-87
2021/11/30 06:16:10;;;;;;;10.97;8.43;;;5.10;95.30;;;;;;5074757;28;20274;-86
2021/11/30 06:18:35;;;;;;;13.40;7.93;;;5.00;95.20;;;;;;5074464;28;20261;-86
2021/11/30 06:21:01;;;;;;;9.50;7.70;;;5.10;95.30;;;;;;5074504;28;20594;-86
2021/11/30 06:23:27;;;;;;;11.10;8.73;;;5.10;95.30;;;;;;5074112;28;20213;-86
2021/11/30 06:25:53;;;;;;;9.20;6.90;;;5.10;95.40;;;;;;5074223;28;20273;-86
2021/11/30 06:28:18;;;;;;;11.30;8.67;;;5.20;95.40;;;;;;5074085;28;20542;-86
2021/11/30 06:30:45;;;;;;;8.67;7.17;;;5.20;95.40;;;;;;5074340;28;20731;-86
2021/11/30 06:33:11;;;;;;;9.07;8.13;;;5.30;95.50;;;;;;5075461;28;20189;-86
2021/11/30 06:35:37;;;;;;;11.00;9.23;;;5.30;95.40;;;;;;5075994;28;20182;-86
2021/11/30 06:38:05;;;;;;;10.37;8.63;;;5.40;95.40;;;;;;5074103;28;20616;-86
2021/11/30 06:40:31;;;;;;;9.90;8.53;;;5.40;95.40;;;;;;5073880;28;20221;-86
2021/11/30 06:42:57;;;;;;;17.20;8.57;;;5.40;95.40;;;;;;5073506;28;20318;-86
2021/11/30 06:45:22;;;;;;;11.57;8.37;;;5.50;95.50;;;;;;5073711;28;20268;-86
2021/11/30 06:47:48;;;;;;;10.47;6.73;;;5.60;95.50;;;;;;5075110;28;20170;-86
2021/11/30 06:50:14;;;;;;;10.83;5.10;;;5.70;95.60;;;;;;5073634;28;20181;-87
2021/11/30 06:52:40;;;;;;;10.27;5.97;;;5.80;95.50;;;;;;5073562;28;20290;-86
2021/11/30 06:55:08;;;;;;;17.77;6.27;;;5.80;95.50;;;;;;5074702;28;20170;-87
2021/11/30 06:57:35;;;;;;;11.93;4.73;;;5.80;95.40;;;;;;5073419;28;20546;-86
2021/11/30 07:00:04;;;;;;;17.33;5.30;;;5.80;95.40;;;;;;5073342;28;20196;-86
2021/11/30 07:02:30;;;;;;;13.00;3.73;;;6.00;95.40;;;;;;5073322;28;20246;-86
2021/11/30 07:04:59;;;;;;;19.97;3.53;;;6.10;95.20;;;;;;5073479;28;20646;-86
2021/11/30 07:07:52;;;;;;;8.70;2.10;;;6.10;95.00;;;;;;5073260;28;20707;-86
2021/11/30 07:15:30;;;;;;;18.80;2.90;;;6.30;93.80;;;;;;5074765;28;20179;-85
2021/11/30 07:17:57;;;;;;;19.00;3.07;;;6.30;93.60;;;;;;5073018;28;20218;-86
2021/11/30 07:20:23;;;;;;;24.30;3.47;;;6.30;93.00;;;;;;5073007;28;20179;-86
2021/11/30 07:22:49;;;;;;;18.43;2.77;;;6.40;92.70;;;;;;5072835;28;20211;-86
2021/11/30 07:25:14;;;;;;;15.73;2.83;;;6.40;92.40;;;;;;5074098;28;20214;-86
2021/11/30 07:27:40;;;;;;;25.47;3.87;;;6.40;92.10;;;;;;5072782;28;20236;-86
2021/11/30 07:30:06;;;;;;;20.97;3.60;;;6.30;91.50;;;;;;5072682;28;20655;-86
2021/11/30 07:32:33;;;;;;;33.27;4.40;;;6.30;91.50;;;;;;5072460;28;20198;-86
2021/11/30 07:34:58;;;;;;;18.03;3.50;;;6.30;91.60;;;;;;5073957;28;20175;-86
2021/11/30 07:37:24;;;;;;;22.13;3.93;;;6.30;91.00;;;;;;5073723;28;20190;-87
2021/11/30 07:39:49;;;;;;;25.40;4.23;;;6.40;90.50;;;;;;5072517;28;20189;-86
2021/11/30 07:42:15;;;;;;;25.43;3.83;;;6.50;89.30;;;;;;5072355;28;20211;-86
2021/11/30 07:44:42;;;;;;;19.67;4.23;;;6.40;89.70;;;;;;5073946;28;20172;-87
2021/11/30 07:47:07;;;;;;;13.50;2.53;;;6.50;88.90;;;;;;5072221;28;20727;-86
2021/11/30 07:49:33;;;;;;;17.20;3.57;;;6.60;87.90;;;;;;5072182;28;20266;-86
2021/11/30 07:51:59;;;;;;;12.90;2.73;;;6.60;87.40;;;;;;5073424;28;20187;-86
2021/11/30 07:54:24;;;;;;;20.93;3.33;;;6.70;86.20;;;;;;5072315;28;20209;-86
2021/11/30 07:56:50;;;;;;;18.03;3.43;;;6.70;85.40;;;;;;5073249;28;20211;-86
2021/11/30 07:59:16;;;;;;;19.83;3.60;;;6.60;85.80;;;;;;5073344;28;20177;-86
2021/11/30 08:01:41;;;;;;;13.77;3.03;;;6.60;85.60;;;;;;5071925;28;20207;-86
2021/11/30 08:04:07;;;;;;;24.90;4.17;;;6.50;86.00;;;;;;5073403;28;20250;-86
2021/11/30 08:06:32;;;;;;;18.97;4.23;;;6.60;86.90;;;;;;5073401;28;20167;-85
2021/11/30 08:08:58;;;;;;;17.83;4.50;;;6.50;88.00;;;;;;5072247;28;20176;-86
2021/11/30 08:11:24;;;;;;;19.97;3.13;;;6.60;87.70;;;;;;5073375;28;20179;-86
2021/11/30 08:13:49;;;;;;;25.27;4.43;;;6.60;87.10;;;;;;5073510;28;20239;-86
2021/11/30 08:16:15;;;;;;;19.33;3.93;;;6.50;88.00;;;;;;5071513;28;20185;-86
2021/11/30 08:18:40;;;;;;;17.97;3.23;;;6.50;88.20;;;;;;5071854;28;20170;-86
2021/11/30 08:21:06;;;;;;;22.10;4.10;;;6.60;88.50;;;;;;5071879;28;20171;-86
2021/11/30 08:23:32;;;;;;;21.53;4.67;;;6.60;88.30;;;;;;5071760;28;20199;-86
2021/11/30 08:25:58;;;;;;;16.23;2.80;;;6.50;88.20;;;;;;5071759;28;20256;-86
2021/11/30 08:28:23;;;;;;;21.53;3.90;;;6.50;87.70;;;;;;5073074;28;20187;-86
2021/11/30 08:30:49;;;;;;;23.77;4.57;;;6.60;87.20;;;;;;5071839;28;20357;-86
2021/11/30 08:33:17;;;;;;;8.17;2.13;;;6.50;87.30;;;;;;5071740;28;20248;-86
2021/11/30 08:35:43;;;;;;;16.03;3.53;;;6.60;87.10;;;;;;5071845;28;20639;-86
2021/11/30 08:38:09;;;;;;;23.97;3.70;;;6.60;87.00;;;;;;5073035;28;20171;-86
2021/11/30 08:40:34;;;;;;;18.83;3.80;;;6.70;87.20;;;;;;5072887;28;20623;-86
2021/11/30 08:43:00;;;;;;;17.17;3.07;;;6.60;87.90;;;;;;5072767;28;20285;-86
2021/11/30 08:45:26;;;;;;;25.13;4.27;;;6.50;89.10;;;;;;5073158;28;20171;-86
2021/11/30 08:47:52;;;;;;;25.90;3.63;;;6.50;89.80;;;;;;5071693;28;20270;-86
2021/11/30 08:50:19;;;;;;;22.43;4.13;;;6.40;90.10;;;;;;5072900;28;20198;-86
2021/11/30 08:52:45;;;;;;;27.07;4.73;;;6.40;90.20;;;;;;5072882;28;20195;-86
2021/11/30 08:55:12;;;;;;;22.70;4.77;;;6.40;90.20;;;;;;5071679;28;20267;-86
2021/11/30 08:57:38;;;;;;;21.17;3.90;;;6.40;89.50;;;;;;5071657;28;20277;-86
2021/11/30 09:00:16;;;;;;;20.77;4.27;;;6.50;88.70;;;;;;5073104;28;20243;-86
2021/11/30 09:02:42;;;;;;;24.50;4.30;;;6.40;89.00;;;;;;5072658;28;20210;-86
2021/11/30 09:05:08;;;;;;;22.30;4.13;;;6.40;89.10;;;;;;5071555;28;20277;-86
2021/11/30 09:07:35;;;;;;;22.73;3.70;;;6.50;88.50;;;;;;5071550;28;20179;-86
2021/11/30 09:10:00;;;;;;;20.70;3.90;;;6.50;88.30;;;;;;5071487;28;20183;-86
2021/11/30 09:12:26;;;;;;;24.80;3.50;;;6.40;88.80;;;;;;5071271;28;20362;-85
2021/11/30 09:14:52;;;;;;;30.17;4.47;;;6.40;87.60;;;;;;5071704;28;20214;-85
2021/11/30 09:17:20;;;;;;;14.30;3.60;;;6.40;87.00;;;;;;5071416;28;20271;-85
2021/11/30 09:19:46;;;;;;;17.30;3.80;;;6.30;86.90;;;;;;5071554;28;20189;-86
2021/11/30 09:22:11;;;;;;;14.37;3.57;;;6.40;87.00;;;;;;5072715;28;20207;-87
2021/11/30 09:24:37;;;;;;;19.83;3.20;;;6.30;87.30;;;;;;5071600;28;20203;-88
2021/11/30 09:27:03;;;;;;;17.03;3.87;;;6.30;87.00;;;;;;5072850;28;20177;-87
2021/11/30 09:29:29;;;;;;;23.30;3.80;;;6.40;86.80;;;;;;5075550;28;20175;-87
2021/11/30 09:31:54;;;;;;;18.37;3.90;;;6.50;86.70;;;;;;5076103;28;20241;-88
2021/11/30 09:34:20;;;;;;;25.47;4.23;;;6.50;86.70;;;;;;5076050;28;20178;-87
2021/11/30 09:36:47;;;;;;;15.10;3.53;;;6.50;87.40;;;;;;5074792;28;20589;-87
2021/11/30 09:39:14;;;;;;;18.70;3.20;;;6.50;87.80;;;;;;5074721;28;20560;-87
2021/11/30 09:41:41;;;;;;;19.37;3.83;;;6.40;88.40;;;;;;5074445;28;20760;-86
2021/11/30 09:44:08;;;;;;;19.53;4.53;;;6.40;88.80;;;;;;5074658;28;20175;-86
2021/11/30 09:46:34;;;;;;;19.70;4.07;;;6.50;89.20;;;;;;5075858;28;20167;-86
2021/11/30 09:48:59;;;;;;;27.23;4.40;;;6.60;88.60;;;;;;5075853;28;20164;-86
2021/11/30 09:51:25;;;;;;;31.80;5.30;;;6.60;88.30;;;;;;5074465;28;20258;-86
2021/11/30 09:53:51;;;;;;;22.20;3.80;;;6.70;87.60;;;;;;5075777;28;20166;-86
2021/11/30 09:56:17;;;;;;;29.87;4.90;;;6.80;86.50;;;;;;5074418;28;20202;-87
2021/11/30 09:58:43;;;;;;;18.70;3.87;;;6.80;85.40;;;;;;5074435;28;20193;-86
2021/11/30 10:01:11;;;;;;;18.87;4.90;;;6.90;83.70;;;;;;5074755;28;20171;-88
2021/11/30 10:03:37;;;;;;;29.80;5.03;;;7.00;82.30;;;;;;5075039;28;20625;-86
2021/11/30 10:06:03;;;;;;;36.63;5.80;;;7.10;81.20;;;;;;5074324;28;20185;-86
2021/11/30 10:08:33;;;;;;;24.53;4.20;;;7.10;81.20;;;;;;5075637;28;20167;-86
2021/11/30 10:11:01;;;;;;;31.33;5.03;;;7.00;81.10;;;;;;5074301;28;20156;-86
2021/11/30 10:13:27;;;;;;;24.57;5.10;;;7.00;81.40;;;;;;5073985;28;20207;-86
2021/11/30 10:16:03;;;;;;;30.87;5.60;;;7.00;81.70;;;;;;5075689;28;20183;-86
2021/11/30 10:18:30;;;;;;;27.00;5.27;;;6.90;81.80;;;;;;5075244;28;20151;-86
2021/11/30 10:21:22;;;;;;;25.57;5.67;;;6.80;81.10;;;;;;5073927;28;20180;-86
2021/11/30 10:24:01;;;;;;;14.67;3.53;;;6.90;80.60;;;;;;5074158;28;20164;-87
2021/11/30 10:26:41;;;;;;;18.37;4.30;;;6.90;80.90;;;;;;5075346;28;20144;-86
2021/11/30 10:29:09;;;;;;;20.37;3.33;;;6.90;80.60;;;;;;5073902;28;20160;-86
2021/11/30 10:31:39;;;;;;;26.17;4.80;;;6.80;81.60;;;;;;5073706;28;20202;-87
2021/11/30 10:34:13;;;;;;;28.43;4.37;;;6.80;81.70;;;;;;5074917;28;20186;-86
2021/11/30 10:36:52;;;;;;;23.23;4.30;;;6.80;81.90;;;;;;5074293;28;20171;-87
2021/11/30 10:39:30;;;;;;;19.27;4.03;;;6.80;82.20;;;;;;5075096;28;20162;-86
2021/11/30 10:42:31;;;;;;;30.47;5.30;;;6.80;82.70;;;;;;5075024;28;20199;-86
2021/11/30 10:44:57;;;;;;;26.37;4.93;;;6.80;83.50;;;;;;5036123;28;20171;-86
2021/11/30 10:47:28;;;;;;;20.60;4.17;;;6.90;82.60;;;;;;5070186;28;20647;-86
2021/11/30 10:49:58;;;;;;;22.40;4.90;;;7.00;80.20;;;;;;5073596;28;20537;-86
2021/11/30 10:52:30;;;;;;;26.27;5.93;;;6.80;79.60;;;;;;5074013;28;20268;-86
2021/11/30 10:55:14;;;;;;;22.90;4.73;;;6.50;80.50;;;;;;5073659;28;20172;-86
2021/11/30 10:57:41;;;;;;;31.30;5.07;;;6.50;81.40;;;;;;5074889;28;20162;-86
2021/11/30 11:00:25;;;;;;;29.80;5.70;;;6.60;82.00;;;;;;5073083;28;20225;-86
2021/11/30 11:02:54;;;;;;;25.03;5.37;;;6.70;81.60;;;;;;5074240;28;20691;-86
2021/11/30 11:05:25;;;;;;;25.73;5.47;;;6.70;81.00;;;;;;5073042;28;20526;-85
2021/11/30 11:08:06;;;;;;;25.60;5.17;;;6.70;80.60;;;;;;5074346;28;20152;-86
2021/11/30 11:10:33;;;;;;;26.80;5.10;;;6.80;78.40;;;;;;5074073;28;20174;-85
2021/11/30 11:13:16;;;;;;;21.50;4.93;;;6.80;78.40;;;;;;5073950;28;20636;-86
2021/11/30 11:15:42;;;;;;;24.73;3.67;;;6.80;77.70;;;;;;5072824;28;20159;-86
2021/11/30 11:18:28;;;;;;;25.37;4.07;;;6.80;77.30;;;;;;5072948;28;20233;-89
2021/11/30 11:21:29;;;;;;;28.20;4.33;;;6.80;75.90;;;;;;5074386;28;20182;-89
2021/11/30 11:24:17;;;;;;;39.87;7.67;;;6.80;73.90;;;;;;5072845;28;20198;-88
2021/11/30 11:26:42;;;;;;;22.23;4.60;;;6.90;74.90;;;;;;5072763;28;20539;-89
2021/11/30 11:29:14;;;;;;;22.63;4.30;;;6.90;74.30;;;;;;5072642;28;20190;-89
2021/11/30 11:31:42;;;;;;;31.27;4.33;;;6.80;74.70;;;;;;5072569;28;20620;-89
2021/11/30 11:34:09;;;;;;;18.83;4.30;;;6.80;73.20;;;;;;5073590;28;20164;-89
2021/11/30 11:36:36;;;;;;;24.57;3.80;;;6.90;74.30;;;;;;5073780;28;20554;-89
2021/11/30 11:39:05;;;;;;;19.33;4.23;;;6.90;74.40;;;;;;5072850;28;20202;-88
2021/11/30 11:41:30;;;;;;;19.83;4.17;;;6.70;76.60;;;;;;5073869;28;20246;-89
2021/11/30 11:43:58;;;;;;;22.10;5.17;;;6.60;77.20;;;;;;5073921;28;20175;-89
2021/11/30 11:46:27;;;;;;;22.13;4.70;;;6.60;76.80;;;;;;5072732;28;20175;-88
2021/11/30 11:48:59;;;;;;;19.60;3.43;;;6.70;77.00;;;;;;5072726;28;20167;-89
2021/11/30 11:51:52;;;;;;;13.67;3.07;;;6.70;76.20;;;;;;5072207;28;20172;-87
2021/11/30 11:54:23;;;;;;;8.47;2.10;;;6.70;75.80;;;;;;5073650;28;20151;-88
2021/11/30 11:56:59;;;;;;;22.77;3.70;;;6.70;76.30;;;;;;5073593;28;20171;-88
2021/11/30 11:59:31;;;;;;;18.10;4.63;;;6.70;77.00;;;;;;5072478;28;20324;-88
2021/11/30 12:02:27;;;;;;;21.57;5.33;;;6.70;77.80;;;;;;5072306;28;20210;-88
2021/11/30 12:05:00;;;;;;;23.90;4.63;;;6.70;78.20;;;;;;5073406;28;20175;-88
2021/11/30 12:07:27;;;;;;;21.00;4.33;;;6.80;78.50;;;;;;5072279;28;20558;-88
2021/11/30 12:10:17;;;;;;;24.30;4.47;;;6.80;78.40;;;;;;5072352;28;20179;-87
2021/11/30 12:12:58;;;;;;;26.93;5.37;;;6.80;79.00;;;;;;5073335;28;20270;-88
2021/11/30 12:15:26;;;;;;;19.47;4.53;;;6.60;81.00;;;;;;5072288;28;20609;-88
2021/11/30 12:17:52;;;;;;;16.87;3.90;;;6.40;82.80;;;;;;5072249;28;20554;-88
2021/11/30 12:20:19;;;;;;;17.03;3.40;;;6.10;82.10;;;;;;5072464;28;20608;-88
2021/11/30 12:22:46;;;;;;;18.23;3.30;;;6.10;81.60;;;;;;5073959;28;20203;-88
2021/11/30 12:25:32;;;;;;;16.77;2.80;;;6.20;82.30;;;;;;5074092;28;20224;-88
2021/11/30 12:28:01;;;;;;;12.37;3.80;;;6.30;81.90;;;;;;5073897;28;20744;-89
2021/11/30 12:30:47;;;;;;;16.90;3.00;;;6.30;80.00;;;;;;5073931;28;20174;-88
2021/11/30 12:33:18;;;;;;;20.10;3.73;;;6.30;79.80;;;;;;5073711;28;20260;-89
2021/11/30 12:35:55;;;;;;;15.03;3.03;;;6.30;78.40;;;;;;5073769;28;20160;-88
2021/11/30 12:38:40;;;;;;;24.80;3.93;;;6.40;78.30;;;;;;5072382;28;20178;-88
2021/11/30 12:41:33;;;;;;;18.57;2.63;;;6.50;78.70;;;;;;5073942;28;20181;-88
2021/11/30 12:44:40;;;;;;;15.10;3.67;;;6.50;79.40;;;;;;5073567;28;20510;-88
2021/11/30 12:47:23;;;;;;;19.37;3.50;;;6.50;79.10;;;;;;5067261;28;20186;-88
2021/11/30 12:49:49;;;;;;;18.70;3.13;;;6.50;78.30;;;;;;5073546;28;20151;-88
2021/11/30 12:52:14;;;;;;;11.77;2.60;;;6.40;78.60;;;;;;5071839;28;20252;-88
2021/11/30 12:54:52;;;;;;;19.43;3.10;;;6.30;78.40;;;;;;5071992;28;20186;-88
2021/11/30 12:57:44;;;;;;;10.40;2.87;;;6.30;79.10;;;;;;5071971;28;20160;-88
2021/11/30 13:00:26;;;;;;;13.17;3.60;;;6.30;78.80;;;;;;5071940;28;20243;-88
2021/11/30 13:03:16;;;;;;;10.93;2.80;;;6.30;78.80;;;;;;5075485;28;20195;-88
2021/11/30 13:05:55;;;;;;;15.30;3.70;;;6.40;77.70;;;;;;5075739;28;20591;-88